createdAt,value
2016-11-27T00:00:12.240Z,928.21
2016-11-27T00:00:39.858Z,928.18
2016-11-27T00:01:07.457Z,928.17
2016-11-27T00:02:17.507Z,928.18
2016-11-27T00:02:45.412Z,928.18
2016-11-27T00:03:13.110Z,928.18
2016-11-27T00:03:55.693Z,928.24
2016-11-27T00:04:23.558Z,928.25
2016-11-27T00:04:51.771Z,928.22
2016-11-27T00:05:19.700Z,928.22
2016-11-27T00:05:47.639Z,928.26
2016-11-27T00:06:15.286Z,928.25
2016-11-27T00:06:43.133Z,928.22
2016-11-27T00:07:11.046Z,928.24
2016-11-27T00:07:39.100Z,928.27
2016-11-27T00:08:06.788Z,928.26
2016-11-27T00:08:35.109Z,928.23
2016-11-27T00:09:03.365Z,928.25
2016-11-27T00:09:31.071Z,928.28
2016-11-27T00:09:58.934Z,928.23
2016-11-27T00:10:26.515Z,928.22
2016-11-27T00:10:54.105Z,928.2
2016-11-27T00:11:21.983Z,928.22
2016-11-27T00:11:49.821Z,928.19
2016-11-27T00:12:17.703Z,928.19
2016-11-27T00:12:46.185Z,928.2
2016-11-27T00:13:13.746Z,928.18
2016-11-27T00:13:41.707Z,928.19
2016-11-27T00:14:09.945Z,928.18
2016-11-27T00:14:37.551Z,928.17
2016-11-27T00:15:05.197Z,928.17
2016-11-27T00:15:32.736Z,928.19
2016-11-27T00:16:00.329Z,928.22
2016-11-27T00:16:28.210Z,928.24
2016-11-27T00:16:56.140Z,928.22
2016-11-27T00:17:24.041Z,928.23
2016-11-27T00:17:52.594Z,928.23
2016-11-27T00:18:20.501Z,928.25
2016-11-27T00:18:48.128Z,928.22
2016-11-27T00:19:16.231Z,928.25
2016-11-27T00:19:43.875Z,928.26
2016-11-27T00:20:11.506Z,928.28
2016-11-27T00:20:39.093Z,928.3
2016-11-27T00:21:06.667Z,928.26
2016-11-27T00:21:34.221Z,928.29
2016-11-27T00:22:01.854Z,928.28
2016-11-27T00:22:30.107Z,928.32
2016-11-27T00:22:58.378Z,928.3
2016-11-27T00:23:26.251Z,928.35
2016-11-27T00:23:54.148Z,928.35
2016-11-27T00:24:21.933Z,928.37
2016-11-27T00:24:49.800Z,928.41
2016-11-27T00:25:17.693Z,928.39
2016-11-27T00:25:45.638Z,928.4
2016-11-27T00:26:13.569Z,928.39
2016-11-27T00:26:41.195Z,928.42
2016-11-27T00:27:08.783Z,928.45
2016-11-27T00:27:36.719Z,928.45
2016-11-27T00:28:04.862Z,928.43
2016-11-27T00:28:32.788Z,928.46
2016-11-27T00:29:00.450Z,928.45
2016-11-27T00:29:28.725Z,928.47
2016-11-27T00:29:56.380Z,928.45
2016-11-27T00:30:24.003Z,928.46
2016-11-27T00:30:51.633Z,928.44
2016-11-27T00:31:19.522Z,928.4
2016-11-27T00:31:47.186Z,928.39
2016-11-27T00:32:14.872Z,928.41
2016-11-27T00:32:42.467Z,928.4
2016-11-27T00:33:10.114Z,928.39
2016-11-27T00:33:37.770Z,928.39
2016-11-27T00:34:05.796Z,928.4
2016-11-27T00:34:33.632Z,928.43
2016-11-27T00:35:01.570Z,928.45
2016-11-27T00:35:29.529Z,928.42
2016-11-27T00:35:57.132Z,928.43
2016-11-27T00:36:24.821Z,928.42
2016-11-27T00:36:52.434Z,928.45
2016-11-27T00:37:20.066Z,928.43
2016-11-27T00:37:48.257Z,928.42
2016-11-27T00:38:16.144Z,928.42
2016-11-27T00:38:43.990Z,928.43
2016-11-27T00:39:11.879Z,928.45
2016-11-27T00:39:39.816Z,928.46
2016-11-27T00:40:08.032Z,928.46
2016-11-27T00:40:35.950Z,928.45
2016-11-27T00:41:03.841Z,928.44
2016-11-27T00:41:31.407Z,928.45
2016-11-27T00:41:59.317Z,928.46
2016-11-27T00:42:27.241Z,928.41
2016-11-27T00:42:55.122Z,928.43
2016-11-27T00:43:22.719Z,928.45
2016-11-27T00:43:50.962Z,928.47
2016-11-27T00:44:18.599Z,928.43
2016-11-27T00:44:46.497Z,928.48
2016-11-27T00:45:14.162Z,928.46
2016-11-27T00:45:42.072Z,928.45
2016-11-27T00:46:09.703Z,928.43
2016-11-27T00:46:37.609Z,928.49
2016-11-27T00:47:05.270Z,928.48
2016-11-27T00:47:32.848Z,928.49
2016-11-27T00:48:00.992Z,928.45
2016-11-27T00:48:28.938Z,928.48
2016-11-27T00:48:56.553Z,928.45
2016-11-27T00:49:24.327Z,928.47
2016-11-27T00:49:52.223Z,928.49
2016-11-27T00:50:19.821Z,928.49
2016-11-27T00:50:47.414Z,928.5
2016-11-27T00:51:14.973Z,928.49
2016-11-27T00:51:42.614Z,928.52
2016-11-27T00:52:10.572Z,928.47
2016-11-27T00:52:38.318Z,928.49
2016-11-27T00:53:06.226Z,928.47
2016-11-27T00:53:34.112Z,928.44
2016-11-27T00:54:01.704Z,928.49
2016-11-27T00:54:29.580Z,928.43
2016-11-27T00:54:57.786Z,928.45
2016-11-27T00:55:25.400Z,928.44
2016-11-27T00:55:53.327Z,928.44
2016-11-27T00:56:21.221Z,928.41
2016-11-27T00:56:48.848Z,928.37
2016-11-27T00:57:16.768Z,928.38
2016-11-27T00:57:44.462Z,928.34
2016-11-27T00:58:12.707Z,928.38
2016-11-27T00:58:40.598Z,928.34
2016-11-27T00:59:08.455Z,928.32
2016-11-27T00:59:36.376Z,928.33
2016-11-27T01:00:04.311Z,928.3
2016-11-27T01:00:31.916Z,928.31
2016-11-27T01:00:59.600Z,928.3
2016-11-27T01:01:27.247Z,928.3
2016-11-27T01:01:54.927Z,928.33
2016-11-27T01:02:22.803Z,928.27
2016-11-27T01:02:50.702Z,928.28
2016-11-27T01:03:18.926Z,928.33
2016-11-27T01:03:46.881Z,928.27
2016-11-27T01:04:14.532Z,928.29
2016-11-27T01:04:42.740Z,928.26
2016-11-27T01:05:10.345Z,928.27
2016-11-27T01:05:37.981Z,928.29
2016-11-27T01:06:05.898Z,928.27
2016-11-27T01:06:33.828Z,928.28
2016-11-27T01:07:01.426Z,928.32
2016-11-27T01:07:29.296Z,928.29
2016-11-27T01:07:57.115Z,928.34
2016-11-27T01:08:25.325Z,928.34
2016-11-27T01:08:53.258Z,928.35
2016-11-27T01:09:21.200Z,928.36
2016-11-27T01:09:49.138Z,928.34
2016-11-27T01:10:17.041Z,928.38
2016-11-27T01:10:44.633Z,928.42
2016-11-27T01:11:12.505Z,928.43
2016-11-27T01:11:40.166Z,928.39
2016-11-27T01:12:08.102Z,928.4
2016-11-27T01:12:35.645Z,928.41
2016-11-27T01:13:03.177Z,928.39
2016-11-27T01:13:30.790Z,928.42
2016-11-27T01:13:59.009Z,928.42
2016-11-27T01:14:26.688Z,928.42
2016-11-27T01:14:54.684Z,928.38
2016-11-27T01:15:22.268Z,928.4
2016-11-27T01:15:50.544Z,928.4
2016-11-27T01:16:18.151Z,928.41
2016-11-27T01:16:45.813Z,928.4
2016-11-27T01:17:13.423Z,928.4
2016-11-27T01:17:41.056Z,928.42
2016-11-27T01:18:09.192Z,928.42
2016-11-27T01:18:37.107Z,928.39
2016-11-27T01:19:05.030Z,928.41
2016-11-27T01:19:33.000Z,928.39
2016-11-27T01:20:00.866Z,928.4
2016-11-27T01:20:28.580Z,928.38
2016-11-27T01:20:56.212Z,928.4
2016-11-27T01:21:24.080Z,928.38
2016-11-27T01:21:51.943Z,928.33
2016-11-27T01:22:19.578Z,928.32
2016-11-27T01:22:47.509Z,928.32
2016-11-27T01:23:15.494Z,928.36
2016-11-27T01:23:43.428Z,928.33
2016-11-27T01:24:11.292Z,928.33
2016-11-27T01:24:39.221Z,928.34
2016-11-27T01:25:07.115Z,928.34
2016-11-27T01:25:35.316Z,928.35
2016-11-27T01:26:03.202Z,928.35
2016-11-27T01:26:30.838Z,928.39
2016-11-27T01:26:58.464Z,928.42
2016-11-27T01:27:26.744Z,928.43
2016-11-27T01:27:54.661Z,928.47
2016-11-27T01:28:22.265Z,928.47
2016-11-27T01:28:50.121Z,928.42
2016-11-27T01:29:17.986Z,928.46
2016-11-27T01:29:45.579Z,928.5
2016-11-27T01:30:13.162Z,928.48
2016-11-27T01:30:41.096Z,928.5
2016-11-27T01:31:08.689Z,928.48
2016-11-27T01:31:36.600Z,928.45
2016-11-27T01:32:04.222Z,928.49
2016-11-27T01:32:31.811Z,928.46
2016-11-27T01:32:59.711Z,928.48
2016-11-27T01:33:27.867Z,928.42
2016-11-27T01:33:55.494Z,928.45
2016-11-27T01:34:23.195Z,928.44
2016-11-27T01:34:51.336Z,928.48
2016-11-27T01:35:19.258Z,928.42
2016-11-27T01:35:47.471Z,928.43
2016-11-27T01:36:15.026Z,928.43
2016-11-27T01:36:42.878Z,928.46
2016-11-27T01:37:10.559Z,928.44
2016-11-27T01:37:38.218Z,928.41
2016-11-27T01:38:05.861Z,928.42
2016-11-27T01:38:33.519Z,928.4
2016-11-27T01:39:01.790Z,928.39
2016-11-27T01:39:29.420Z,928.41
2016-11-27T01:39:57.261Z,928.41
2016-11-27T01:40:24.894Z,928.4
2016-11-27T01:40:52.534Z,928.39
2016-11-27T01:41:20.131Z,928.38
2016-11-27T01:41:47.782Z,928.38
2016-11-27T01:42:15.487Z,928.38
2016-11-27T01:42:43.083Z,928.36
2016-11-27T01:43:10.703Z,928.36
2016-11-27T01:43:38.303Z,928.37
2016-11-27T01:44:06.463Z,928.35
2016-11-27T01:44:34.078Z,928.35
2016-11-27T01:45:01.963Z,928.34
2016-11-27T01:45:29.593Z,928.35
2016-11-27T01:45:57.172Z,928.34
2016-11-27T01:46:24.865Z,928.37
2016-11-27T01:46:52.492Z,928.36
2016-11-27T01:47:20.103Z,928.35
2016-11-27T01:47:47.729Z,928.39
2016-11-27T01:48:15.385Z,928.38
2016-11-27T01:48:43.255Z,928.37
2016-11-27T01:49:10.823Z,928.36
2016-11-27T01:49:38.456Z,928.4
2016-11-27T01:50:06.491Z,928.37
2016-11-27T01:50:34.098Z,928.42
2016-11-27T01:51:02.098Z,928.46
2016-11-27T01:51:29.837Z,928.43
2016-11-27T01:51:57.493Z,928.44
2016-11-27T01:52:25.173Z,928.43
2016-11-27T01:52:52.769Z,928.39
2016-11-27T01:53:20.664Z,928.43
2016-11-27T01:53:48.877Z,928.41
2016-11-27T01:54:16.761Z,928.42
2016-11-27T01:54:44.695Z,928.41
2016-11-27T01:55:12.500Z,928.44
2016-11-27T01:55:40.331Z,928.4
2016-11-27T01:56:08.014Z,928.4
2016-11-27T01:56:35.623Z,928.39
2016-11-27T01:57:03.610Z,928.38
2016-11-27T01:57:31.523Z,928.39
2016-11-27T01:57:59.117Z,928.33
2016-11-27T01:58:26.753Z,928.37
2016-11-27T01:58:54.665Z,928.36
2016-11-27T01:59:22.561Z,928.37
2016-11-27T01:59:50.165Z,928.32
2016-11-27T02:00:18.052Z,928.38
2016-11-27T02:00:45.628Z,928.33
2016-11-27T02:01:13.209Z,928.36
2016-11-27T02:01:40.821Z,928.35
2016-11-27T02:02:08.376Z,928.36
2016-11-27T02:02:35.989Z,928.35
2016-11-27T02:03:03.604Z,928.35
2016-11-27T02:03:31.297Z,928.36
2016-11-27T02:03:59.453Z,928.36
2016-11-27T02:04:27.365Z,928.34
2016-11-27T02:04:55.629Z,928.38
2016-11-27T02:05:23.242Z,928.38
2016-11-27T02:05:50.846Z,928.36
2016-11-27T02:06:18.491Z,928.38
2016-11-27T02:06:46.139Z,928.39
2016-11-27T02:07:13.806Z,928.38
2016-11-27T02:07:41.438Z,928.38
2016-11-27T02:08:09.301Z,928.38
2016-11-27T02:08:36.848Z,928.42
2016-11-27T02:09:04.781Z,928.43
2016-11-27T02:09:32.708Z,928.38
2016-11-27T02:10:00.691Z,928.34
2016-11-27T02:10:28.347Z,928.42
2016-11-27T02:10:55.937Z,928.39
2016-11-27T02:11:23.801Z,928.36
2016-11-27T02:11:51.657Z,928.36
2016-11-27T02:12:19.285Z,928.38
2016-11-27T02:12:46.946Z,928.41
2016-11-27T02:13:14.564Z,928.42
2016-11-27T02:13:42.218Z,928.45
2016-11-27T02:14:10.063Z,928.46
2016-11-27T02:14:37.662Z,928.44
2016-11-27T02:15:05.793Z,928.42
2016-11-27T02:15:33.444Z,928.4
2016-11-27T02:16:01.350Z,928.41
2016-11-27T02:16:29.284Z,928.39
2016-11-27T02:16:56.935Z,928.39
2016-11-27T02:17:24.551Z,928.38
2016-11-27T02:17:52.160Z,928.39
2016-11-27T02:18:19.753Z,928.38
2016-11-27T02:18:47.641Z,928.37
2016-11-27T02:19:15.544Z,928.32
2016-11-27T02:19:43.467Z,928.36
2016-11-27T02:20:11.016Z,928.4
2016-11-27T02:20:39.596Z,928.38
2016-11-27T02:21:07.185Z,928.37
2016-11-27T02:21:34.831Z,928.39
2016-11-27T02:22:02.434Z,928.35
2016-11-27T02:22:30.034Z,928.37
2016-11-27T02:23:11.273Z,928.38
2016-11-27T02:23:39.222Z,928.36
2016-11-27T02:24:07.145Z,928.37
2016-11-27T02:24:34.852Z,928.36
2016-11-27T02:25:02.416Z,928.38
2016-11-27T02:25:30.353Z,928.37
2016-11-27T02:25:57.997Z,928.35
2016-11-27T02:26:25.582Z,928.33
2016-11-27T02:26:53.504Z,928.35
2016-11-27T02:27:21.447Z,928.34
2016-11-27T02:27:49.458Z,928.34
2016-11-27T02:28:17.116Z,928.34
2016-11-27T02:28:44.943Z,928.32
2016-11-27T02:29:12.854Z,928.34
2016-11-27T02:29:40.740Z,928.37
2016-11-27T02:30:08.347Z,928.32
2016-11-27T02:30:36.250Z,928.3
2016-11-27T02:31:03.929Z,928.3
2016-11-27T02:31:31.570Z,928.31
2016-11-27T02:31:59.413Z,928.33
2016-11-27T02:32:27.049Z,928.31
2016-11-27T02:32:55.527Z,928.29
2016-11-27T02:33:23.157Z,928.28
2016-11-27T02:33:50.767Z,928.26
2016-11-27T02:34:18.429Z,928.25
2016-11-27T02:34:46.600Z,928.28
2016-11-27T02:35:14.281Z,928.27
2016-11-27T02:35:41.888Z,928.26
2016-11-27T02:36:09.452Z,928.25
2016-11-27T02:36:37.044Z,928.23
2016-11-27T02:37:04.686Z,928.23
2016-11-27T02:37:32.363Z,928.21
2016-11-27T02:37:59.958Z,928.24
2016-11-27T02:38:27.851Z,928.21
2016-11-27T02:38:56.019Z,928.23
2016-11-27T02:39:23.644Z,928.22
2016-11-27T02:39:51.332Z,928.2
2016-11-27T02:40:18.896Z,928.17
2016-11-27T02:40:46.610Z,928.2
2016-11-27T02:41:14.233Z,928.19
2016-11-27T02:41:42.134Z,928.14
2016-11-27T02:42:09.724Z,928.15
2016-11-27T02:42:37.288Z,928.16
2016-11-27T02:43:04.885Z,928.17
2016-11-27T02:43:32.478Z,928.19
2016-11-27T02:44:00.180Z,928.19
2016-11-27T02:44:28.094Z,928.15
2016-11-27T02:44:55.696Z,928.15
2016-11-27T02:45:23.297Z,928.16
2016-11-27T02:45:50.876Z,928.15
2016-11-27T02:46:18.500Z,928.16
2016-11-27T02:46:46.120Z,928.14
2016-11-27T02:47:13.708Z,928.12
2016-11-27T02:47:41.340Z,928.16
2016-11-27T02:48:08.955Z,928.12
2016-11-27T02:48:36.844Z,928.14
2016-11-27T02:49:04.764Z,928.12
2016-11-27T02:49:32.620Z,928.09
2016-11-27T02:50:00.510Z,928.12
2016-11-27T02:50:28.391Z,928.09
2016-11-27T02:50:56.209Z,928.09
2016-11-27T02:51:24.024Z,928.05
2016-11-27T02:51:51.694Z,928.1
2016-11-27T02:52:19.396Z,928.08
2016-11-27T02:52:47.066Z,928.08
2016-11-27T02:53:14.735Z,928.08
2016-11-27T02:53:42.376Z,928.06
2016-11-27T02:54:09.978Z,928.05
2016-11-27T02:54:37.913Z,928.05
2016-11-27T02:55:05.807Z,928.03
2016-11-27T02:55:33.677Z,928.01
2016-11-27T02:56:01.297Z,928.03
2016-11-27T02:56:28.884Z,928.04
2016-11-27T02:56:56.761Z,928.03
2016-11-27T02:57:24.416Z,928.03
2016-11-27T02:57:52.065Z,928.03
2016-11-27T02:58:20.016Z,928.03
2016-11-27T02:58:47.631Z,928.04
2016-11-27T02:59:15.224Z,928.02
2016-11-27T02:59:43.161Z,928.04
2016-11-27T03:00:11.596Z,928.02
2016-11-27T03:00:39.298Z,928.02
2016-11-27T03:01:07.195Z,928.05
2016-11-27T03:01:34.804Z,928.07
2016-11-27T03:02:02.714Z,928.06
2016-11-27T03:02:30.897Z,928.05
2016-11-27T03:02:58.591Z,928.04
2016-11-27T03:03:26.200Z,928.03
2016-11-27T03:03:54.114Z,928.08
2016-11-27T03:04:21.719Z,928.05
2016-11-27T03:04:49.676Z,928.07
2016-11-27T03:05:17.273Z,928.02
2016-11-27T03:05:45.107Z,928.05
2016-11-27T03:06:13.024Z,928.04
2016-11-27T03:06:40.888Z,928.03
2016-11-27T03:07:08.823Z,928.05
2016-11-27T03:07:36.774Z,928.09
2016-11-27T03:08:04.390Z,928.05
2016-11-27T03:08:31.983Z,928.06
2016-11-27T03:08:59.582Z,928.08
2016-11-27T03:09:27.783Z,928.08
2016-11-27T03:09:55.410Z,928.13
2016-11-27T03:10:22.942Z,928.06
2016-11-27T03:10:50.531Z,928.09
2016-11-27T03:11:18.194Z,928.1
2016-11-27T03:11:46.101Z,928.06
2016-11-27T03:12:13.731Z,928.09
2016-11-27T03:12:41.466Z,928.06
2016-11-27T03:13:09.459Z,928.03
2016-11-27T03:13:37.093Z,928.05
2016-11-27T03:14:04.999Z,928
2016-11-27T03:14:32.905Z,928
2016-11-27T03:15:00.513Z,928.02
2016-11-27T03:15:28.093Z,927.97
2016-11-27T03:15:55.806Z,927.93
2016-11-27T03:16:23.490Z,927.95
2016-11-27T03:16:51.130Z,927.94
2016-11-27T03:17:18.992Z,927.94
2016-11-27T03:17:46.911Z,927.94
2016-11-27T03:18:14.755Z,927.95
2016-11-27T03:18:42.675Z,927.92
2016-11-27T03:19:10.319Z,927.95
2016-11-27T03:19:37.953Z,927.94
2016-11-27T03:20:06.123Z,927.96
2016-11-27T03:20:34.006Z,927.96
2016-11-27T03:21:01.810Z,927.92
2016-11-27T03:21:29.527Z,927.9
2016-11-27T03:21:57.150Z,927.88
2016-11-27T03:22:25.013Z,927.87
2016-11-27T03:22:52.602Z,927.88
2016-11-27T03:23:20.218Z,927.88
2016-11-27T03:23:47.994Z,927.83
2016-11-27T03:24:15.692Z,927.84
2016-11-27T03:24:43.325Z,927.88
2016-11-27T03:25:11.249Z,927.86
2016-11-27T03:25:39.092Z,927.84
2016-11-27T03:26:06.961Z,927.85
2016-11-27T03:26:34.581Z,927.85
2016-11-27T03:27:02.432Z,927.87
2016-11-27T03:27:30.647Z,927.86
2016-11-27T03:27:58.251Z,927.86
2016-11-27T03:28:25.905Z,927.82
2016-11-27T03:28:53.542Z,927.79
2016-11-27T03:29:21.384Z,927.78
2016-11-27T03:29:49.351Z,927.79
2016-11-27T03:30:17.286Z,927.78
2016-11-27T03:30:44.961Z,927.78
2016-11-27T03:31:12.629Z,927.81
2016-11-27T03:31:40.527Z,927.76
2016-11-27T03:32:08.354Z,927.8
2016-11-27T03:32:36.358Z,927.78
2016-11-27T03:33:04.259Z,927.81
2016-11-27T03:33:31.869Z,927.74
2016-11-27T03:33:59.557Z,927.77
2016-11-27T03:34:27.146Z,927.77
2016-11-27T03:34:54.786Z,927.78
2016-11-27T03:35:22.717Z,927.79
2016-11-27T03:35:50.613Z,927.79
2016-11-27T03:36:18.191Z,927.79
2016-11-27T03:36:45.774Z,927.81
2016-11-27T03:37:13.415Z,927.81
2016-11-27T03:37:41.353Z,927.81
2016-11-27T03:38:09.292Z,927.8
2016-11-27T03:38:36.920Z,927.81
2016-11-27T03:39:04.887Z,927.83
2016-11-27T03:39:32.795Z,927.81
2016-11-27T03:40:00.399Z,927.81
2016-11-27T03:40:28.183Z,927.8
2016-11-27T03:40:57.780Z,927.78
2016-11-27T03:41:25.530Z,927.8
2016-11-27T03:41:53.287Z,927.78
2016-11-27T03:42:21.013Z,927.77
2016-11-27T03:42:48.933Z,927.78
2016-11-27T03:43:16.569Z,927.77
2016-11-27T03:44:26.764Z,927.79
2016-11-27T03:45:08.981Z,927.81
2016-11-27T03:45:51.344Z,927.76
2016-11-27T03:46:19.384Z,927.77
2016-11-27T03:46:46.970Z,927.79
2016-11-27T03:47:14.529Z,927.8
2016-11-27T03:47:42.675Z,927.79
2016-11-27T03:48:10.273Z,927.82
2016-11-27T03:48:38.329Z,927.82
2016-11-27T03:49:20.651Z,927.79
2016-11-27T03:49:48.320Z,927.8
2016-11-27T03:50:16.243Z,927.78
2016-11-27T03:50:44.134Z,927.8
2016-11-27T03:51:11.967Z,927.79
2016-11-27T03:51:39.620Z,927.78
2016-11-27T03:52:07.250Z,927.8
2016-11-27T03:52:35.151Z,927.78
2016-11-27T03:53:03.111Z,927.79
2016-11-27T03:53:30.763Z,927.79
2016-11-27T03:53:58.619Z,927.81
2016-11-27T03:54:26.243Z,927.77
2016-11-27T03:54:54.160Z,927.8
2016-11-27T03:55:22.097Z,927.79
2016-11-27T03:55:49.703Z,927.79
2016-11-27T03:56:17.382Z,927.8
2016-11-27T03:56:45.005Z,927.78
2016-11-27T03:57:12.642Z,927.82
2016-11-27T03:57:40.242Z,927.76
2016-11-27T03:58:07.913Z,927.73
2016-11-27T03:58:35.799Z,927.73
2016-11-27T03:59:03.425Z,927.73
2016-11-27T03:59:31.039Z,927.72
2016-11-27T03:59:59.319Z,927.7
2016-11-27T04:00:27.354Z,927.69
2016-11-27T04:00:54.993Z,927.71
2016-11-27T04:01:22.681Z,927.69
2016-11-27T04:01:50.574Z,927.68
2016-11-27T04:02:18.196Z,927.68
2016-11-27T04:02:45.830Z,927.7
2016-11-27T04:03:13.456Z,927.69
2016-11-27T04:03:41.092Z,927.69
2016-11-27T04:04:08.956Z,927.65
2016-11-27T04:04:36.898Z,927.68
2016-11-27T04:05:05.106Z,927.68
2016-11-27T04:05:33.027Z,927.71
2016-11-27T04:06:00.702Z,927.71
2016-11-27T04:06:28.294Z,927.69
2016-11-27T04:06:55.892Z,927.66
2016-11-27T04:07:23.457Z,927.65
2016-11-27T04:07:51.287Z,927.68
2016-11-27T04:08:18.927Z,927.63
2016-11-27T04:08:46.525Z,927.69
2016-11-27T04:09:14.485Z,927.67
2016-11-27T04:09:42.094Z,927.69
2016-11-27T04:10:09.724Z,927.64
2016-11-27T04:10:37.357Z,927.63
2016-11-27T04:11:05.169Z,927.67
2016-11-27T04:11:32.804Z,927.64
2016-11-27T04:12:00.740Z,927.63
2016-11-27T04:12:28.363Z,927.58
2016-11-27T04:12:55.964Z,927.62
2016-11-27T04:13:23.875Z,927.61
2016-11-27T04:13:51.494Z,927.61
2016-11-27T04:14:19.136Z,927.59
2016-11-27T04:14:46.739Z,927.57
2016-11-27T04:15:14.387Z,927.61
2016-11-27T04:15:42.324Z,927.58
2016-11-27T04:16:09.944Z,927.61
2016-11-27T04:16:37.552Z,927.63
2016-11-27T04:17:05.152Z,927.62
2016-11-27T04:17:32.755Z,927.6
2016-11-27T04:18:00.378Z,927.65
2016-11-27T04:18:28.015Z,927.62
2016-11-27T04:18:55.601Z,927.66
2016-11-27T04:19:24.096Z,927.6
2016-11-27T04:19:52.302Z,927.61
2016-11-27T04:20:19.930Z,927.58
2016-11-27T04:20:47.873Z,927.62
2016-11-27T04:21:15.698Z,927.61
2016-11-27T04:21:43.238Z,927.61
2016-11-27T04:22:10.824Z,927.63
2016-11-27T04:22:38.478Z,927.61
2016-11-27T04:23:06.094Z,927.62
2016-11-27T04:23:33.766Z,927.61
2016-11-27T04:24:01.373Z,927.64
2016-11-27T04:24:28.975Z,927.59
2016-11-27T04:24:56.598Z,927.59
2016-11-27T04:25:24.305Z,927.65
2016-11-27T04:25:52.002Z,927.61
2016-11-27T04:26:19.925Z,927.6
2016-11-27T04:26:47.584Z,927.64
2016-11-27T04:27:15.546Z,927.64
2016-11-27T04:27:43.088Z,927.59
2016-11-27T04:28:10.992Z,927.61
2016-11-27T04:28:39.201Z,927.61
2016-11-27T04:29:07.026Z,927.6
2016-11-27T04:29:34.932Z,927.58
2016-11-27T04:30:02.750Z,927.6
2016-11-27T04:30:30.968Z,927.58
2016-11-27T04:30:58.870Z,927.57
2016-11-27T04:31:26.671Z,927.61
2016-11-27T04:31:54.272Z,927.58
2016-11-27T04:32:21.899Z,927.59
2016-11-27T04:32:49.885Z,927.59
2016-11-27T04:33:17.833Z,927.6
2016-11-27T04:33:45.682Z,927.6
2016-11-27T04:34:13.328Z,927.62
2016-11-27T04:34:40.967Z,927.6
2016-11-27T04:35:08.541Z,927.63
2016-11-27T04:35:36.112Z,927.64
2016-11-27T04:36:04.059Z,927.62
2016-11-27T04:36:31.702Z,927.62
2016-11-27T04:36:59.550Z,927.63
2016-11-27T04:37:27.728Z,927.65
2016-11-27T04:37:55.443Z,927.63
2016-11-27T04:38:23.422Z,927.63
2016-11-27T04:38:51.021Z,927.61
2016-11-27T04:39:18.650Z,927.62
2016-11-27T04:39:46.267Z,927.64
2016-11-27T04:40:14.200Z,927.61
2016-11-27T04:40:41.806Z,927.62
2016-11-27T04:41:09.392Z,927.59
2016-11-27T04:41:37.320Z,927.66
2016-11-27T04:42:04.954Z,927.6
2016-11-27T04:42:32.571Z,927.59
2016-11-27T04:43:01.111Z,927.58
2016-11-27T04:43:28.727Z,927.6
2016-11-27T04:43:56.591Z,927.59
2016-11-27T04:44:24.426Z,927.59
2016-11-27T04:44:51.999Z,927.57
2016-11-27T04:45:19.892Z,927.57
2016-11-27T04:45:47.780Z,927.56
2016-11-27T04:46:15.374Z,927.54
2016-11-27T04:46:43.254Z,927.58
2016-11-27T04:47:10.905Z,927.56
2016-11-27T04:47:38.781Z,927.51
2016-11-27T04:48:06.968Z,927.54
2016-11-27T04:48:34.879Z,927.54
2016-11-27T04:49:02.520Z,927.54
2016-11-27T04:49:30.120Z,927.53
2016-11-27T04:49:57.898Z,927.54
2016-11-27T04:50:25.832Z,927.54
2016-11-27T04:50:53.751Z,927.55
2016-11-27T04:51:21.328Z,927.54
2016-11-27T04:51:49.013Z,927.55
2016-11-27T04:52:16.619Z,927.56
2016-11-27T04:52:44.510Z,927.56
2016-11-27T04:53:12.422Z,927.55
2016-11-27T04:53:40.292Z,927.57
2016-11-27T04:54:07.935Z,927.56
2016-11-27T04:54:35.593Z,927.53
2016-11-27T04:55:03.622Z,927.53
2016-11-27T04:55:31.528Z,927.55
2016-11-27T04:55:59.124Z,927.53
2016-11-27T04:56:26.730Z,927.53
2016-11-27T04:56:54.533Z,927.52
2016-11-27T04:57:22.224Z,927.52
2016-11-27T04:57:49.857Z,927.48
2016-11-27T04:58:17.430Z,927.47
2016-11-27T04:58:45.073Z,927.48
2016-11-27T04:59:12.686Z,927.45
2016-11-27T04:59:40.614Z,927.4
2016-11-27T05:00:08.215Z,927.42
2016-11-27T05:00:36.126Z,927.4
2016-11-27T05:01:04.003Z,927.42
2016-11-27T05:01:31.846Z,927.36
2016-11-27T05:01:59.569Z,927.39
2016-11-27T05:02:27.783Z,927.36
2016-11-27T05:02:55.418Z,927.37
2016-11-27T05:03:23.350Z,927.37
2016-11-27T05:03:51.261Z,927.36
2016-11-27T05:04:18.896Z,927.38
2016-11-27T05:04:47.151Z,927.37
2016-11-27T05:05:15.080Z,927.34
2016-11-27T05:05:42.709Z,927.34
2016-11-27T05:06:10.602Z,927.33
2016-11-27T05:06:38.552Z,927.34
2016-11-27T05:07:07.330Z,927.34
2016-11-27T05:07:35.001Z,927.35
2016-11-27T05:08:02.688Z,927.35
2016-11-27T05:08:30.592Z,927.35
2016-11-27T05:08:58.437Z,927.33
2016-11-27T05:09:26.622Z,927.33
2016-11-27T05:09:54.311Z,927.31
2016-11-27T05:10:22.608Z,927.35
2016-11-27T05:10:50.251Z,927.29
2016-11-27T05:11:17.856Z,927.28
2016-11-27T05:11:46.003Z,927.31
2016-11-27T05:12:13.796Z,927.3
2016-11-27T05:12:41.379Z,927.27
2016-11-27T05:13:09.523Z,927.28
2016-11-27T05:13:38.013Z,927.27
2016-11-27T05:14:05.658Z,927.22
2016-11-27T05:14:33.782Z,927.27
2016-11-27T05:15:01.357Z,927.24
2016-11-27T05:15:29.230Z,927.25
2016-11-27T05:15:56.902Z,927.24
2016-11-27T05:16:24.548Z,927.29
2016-11-27T05:16:52.471Z,927.25
2016-11-27T05:17:20.069Z,927.25
2016-11-27T05:17:47.917Z,927.21
2016-11-27T05:18:15.854Z,927.22
2016-11-27T05:18:43.498Z,927.23
2016-11-27T05:19:11.174Z,927.17
2016-11-27T05:19:38.818Z,927.19
2016-11-27T05:20:06.453Z,927.21
2016-11-27T05:20:34.686Z,927.22
2016-11-27T05:21:02.572Z,927.19
2016-11-27T05:21:30.237Z,927.21
2016-11-27T05:21:58.553Z,927.2
2016-11-27T05:22:26.200Z,927.22
2016-11-27T05:22:54.399Z,927.25
2016-11-27T05:23:22.314Z,927.19
2016-11-27T05:23:49.924Z,927.23
2016-11-27T05:24:17.809Z,927.25
2016-11-27T05:24:45.717Z,927.2
2016-11-27T05:25:13.632Z,927.22
2016-11-27T05:25:41.304Z,927.24
2016-11-27T05:26:08.931Z,927.23
2016-11-27T05:26:36.570Z,927.21
2016-11-27T05:27:04.192Z,927.19
2016-11-27T05:27:31.835Z,927.22
2016-11-27T05:27:59.779Z,927.17
2016-11-27T05:28:27.408Z,927.22
2016-11-27T05:28:55.337Z,927.2
2016-11-27T05:29:23.260Z,927.19
2016-11-27T05:29:51.080Z,927.2
2016-11-27T05:30:18.680Z,927.13
2016-11-27T05:30:46.305Z,927.15
2016-11-27T05:31:14.256Z,927.19
2016-11-27T05:31:42.432Z,927.15
2016-11-27T05:32:10.258Z,927.14
2016-11-27T05:32:37.856Z,927.17
2016-11-27T05:33:05.771Z,927.19
2016-11-27T05:33:33.361Z,927.13
2016-11-27T05:34:01.389Z,927.12
2016-11-27T05:34:28.984Z,927.16
2016-11-27T05:34:56.904Z,927.15
2016-11-27T05:35:24.469Z,927.12
2016-11-27T05:35:52.437Z,927.14
2016-11-27T05:36:20.092Z,927.09
2016-11-27T05:36:47.786Z,927.13
2016-11-27T05:37:15.755Z,927.11
2016-11-27T05:37:43.696Z,927.04
2016-11-27T05:38:11.345Z,927.09
2016-11-27T05:38:39.288Z,927.05
2016-11-27T05:39:06.923Z,927.06
2016-11-27T05:39:34.580Z,927.07
2016-11-27T05:40:02.177Z,927.04
2016-11-27T05:40:29.766Z,927.05
2016-11-27T05:40:57.616Z,927.03
2016-11-27T05:41:25.856Z,927.01
2016-11-27T05:41:53.633Z,927
2016-11-27T05:42:21.300Z,927
2016-11-27T05:42:49.189Z,927.02
2016-11-27T05:43:16.820Z,926.98
2016-11-27T05:43:44.640Z,927.01
2016-11-27T05:44:12.223Z,926.98
2016-11-27T05:44:39.848Z,927.03
2016-11-27T05:45:07.489Z,927.02
2016-11-27T05:45:35.394Z,927.03
2016-11-27T05:46:03.388Z,927.07
2016-11-27T05:46:31.034Z,927.05
2016-11-27T05:46:58.957Z,927.08
2016-11-27T05:47:26.848Z,927.05
2016-11-27T05:47:55.332Z,927.11
2016-11-27T05:48:23.024Z,927.13
2016-11-27T05:48:50.623Z,927.09
2016-11-27T05:49:18.471Z,927.14
2016-11-27T05:49:46.114Z,927.14
2016-11-27T05:50:13.665Z,927.09